createdAt,value
2019-04-07T00:01:38.409Z,69.10
2019-04-07T00:04:13.504Z,74.45
2019-04-07T00:06:46.355Z,72.97
2019-04-07T00:09:20.408Z,66.72
2019-04-07T00:12:13.755Z,71.22
2019-04-07T00:14:46.895Z,72.37
2019-04-07T00:17:27.470Z,71.22
2019-04-07T00:20:00.634Z,74.75
2019-04-07T00:22:34.532Z,70.05
2019-04-07T00:25:28.693Z,76.37
2019-04-07T00:28:12.845Z,60.48
2019-04-07T00:30:42.595Z,70.67
2019-04-07T00:33:15.475Z,71.02
2019-04-07T00:35:58.150Z,76.40
2019-04-07T00:38:30.503Z,76.28
2019-04-07T00:41:03.644Z,66.33
2019-04-07T00:43:36.844Z,78.05
2019-04-07T00:46:09.948Z,84.50
2019-04-07T00:48:42.739Z,80.25
2019-04-07T00:51:15.569Z,76.53
2019-04-07T00:53:48.454Z,80.32
2019-04-07T00:56:21.433Z,74.53
2019-04-07T00:58:54.549Z,78.22
2019-04-07T01:01:32.084Z,76.40
2019-04-07T01:04:01.286Z,81.75
2019-04-07T01:06:30.072Z,74.42
2019-04-07T01:08:59.167Z,82.35
2019-04-07T01:11:28.060Z,75.12
2019-04-07T01:13:56.990Z,78.20
2019-04-07T01:16:26.258Z,79.27
2019-04-07T01:18:55.114Z,84.32
2019-04-07T01:21:23.907Z,74.50
2019-04-07T01:23:53.217Z,74.45
2019-04-07T01:26:22.728Z,76.40
2019-04-07T01:28:53.685Z,84.62
2019-04-07T01:31:22.563Z,84.50
2019-04-07T01:33:52.120Z,76.80
2019-04-07T01:36:21.604Z,79.70
2019-04-07T01:38:51.110Z,79.77
2019-04-07T01:41:24.171Z,81.30
2019-04-07T01:44:06.748Z,79.27
2019-04-07T01:49:28.001Z,82.40
2019-04-07T01:51:59.253Z,69.95
2019-04-07T01:54:29.681Z,76.37
2019-04-07T01:57:18.745Z,76.65
2019-04-07T02:00:01.946Z,75.75
2019-04-07T02:02:49.403Z,77.70
2019-04-07T02:05:37.643Z,76.80
2019-04-07T02:08:24.784Z,84.05
2019-04-07T02:10:55.932Z,78.97
2019-04-07T02:13:36.166Z,80.03
2019-04-07T02:16:06.790Z,82.47
2019-04-07T02:18:44.230Z,77.97
2019-04-07T02:21:20.701Z,79.25
2019-04-07T02:23:54.826Z,84.77
2019-04-07T02:26:50.486Z,82.53
2019-04-07T02:29:21.216Z,86.17
2019-04-07T02:31:58.559Z,81.65
2019-04-07T02:34:45.737Z,81.87
2019-04-07T02:37:31.618Z,77.60
2019-04-07T02:40:03.859Z,84.03
2019-04-07T02:42:48.251Z,79.72
2019-04-07T02:45:19.688Z,77.22
2019-04-07T02:48:01.145Z,78.45
2019-04-07T02:50:48.187Z,77.47
2019-04-07T02:53:21.470Z,76.90
2019-04-07T02:56:02.032Z,76.47
2019-04-07T02:58:35.830Z,74.45
2019-04-07T03:01:22.973Z,69.75
2019-04-07T03:04:09.571Z,80.35
2019-04-07T03:06:51.038Z,74.77
2019-04-07T03:09:18.742Z,73.47
2019-04-07T03:11:49.456Z,76.28
2019-04-07T03:14:19.985Z,78.05
2019-04-07T03:17:02.877Z,77.87
2019-04-07T03:19:33.374Z,73.10
2019-04-07T03:22:16.284Z,78.25
2019-04-07T03:24:46.905Z,77.92
2019-04-07T03:27:32.669Z,79.15
2019-04-07T03:30:03.927Z,76.92
2019-04-07T03:32:49.303Z,76.17
2019-04-07T03:35:30.520Z,72.47
2019-04-07T03:38:02.843Z,81.02
2019-04-07T03:40:36.711Z,81.00
2019-04-07T03:43:10.302Z,71.02
2019-04-07T03:45:49.928Z,69.77
2019-04-07T03:48:21.164Z,67.87
2019-04-07T03:50:57.679Z,68.22
2019-04-07T03:53:37.150Z,69.40
2019-04-07T03:56:08.117Z,67.35
2019-04-07T03:58:50.906Z,64.72
2019-04-07T04:01:24.184Z,64.07
2019-04-07T04:04:10.904Z,75.00
2019-04-07T04:06:57.928Z,71.72
2019-04-07T04:09:39.737Z,83.58
2019-04-07T04:12:13.397Z,91.55
2019-04-07T04:14:44.131Z,86.67
2019-04-07T04:17:13.068Z,87.75
2019-04-07T04:19:42.583Z,91.45
2019-04-07T04:22:12.864Z,94.42
2019-04-07T04:24:42.191Z,90.97
2019-04-07T04:27:11.065Z,94.90
2019-04-07T04:29:39.950Z,98.87
2019-04-07T04:32:09.205Z,98.05
2019-04-07T04:34:38.902Z,87.50
2019-04-07T04:37:08.177Z,98.42
2019-04-07T04:39:38.774Z,96.67
2019-04-07T04:42:08.477Z,96.25
2019-04-07T04:44:37.988Z,95.80
2019-04-07T04:47:06.869Z,94.85
2019-04-07T04:49:35.630Z,95.42
2019-04-07T04:52:05.142Z,102.72
2019-04-07T04:54:34.063Z,95.92
2019-04-07T04:57:06.412Z,97.15
2019-04-07T04:59:33.347Z,96.75
2019-04-07T05:02:02.142Z,88.55
2019-04-07T05:04:31.709Z,90.77
2019-04-07T05:07:01.439Z,95.97
2019-04-07T05:09:42.149Z,97.67
2019-04-07T05:12:04.071Z,96.50
2019-04-07T05:14:32.143Z,104.95
2019-04-07T05:17:00.977Z,97.50
2019-04-07T05:19:29.738Z,101.65
2019-04-07T05:21:59.145Z,103.50
2019-04-07T05:24:28.624Z,109.72
2019-04-07T05:26:57.646Z,104.00
2019-04-07T05:29:26.439Z,97.40
2019-04-07T05:31:55.724Z,108.22
2019-04-07T05:34:24.596Z,112.90
2019-04-07T05:36:53.417Z,114.10
2019-04-07T05:39:22.939Z,112.57
2019-04-07T05:41:52.522Z,107.97
2019-04-07T05:44:21.752Z,109.60
2019-04-07T05:46:51.581Z,109.90
2019-04-07T05:49:23.248Z,111.57
2019-04-07T05:51:50.949Z,120.60
2019-04-07T05:54:20.766Z,119.13
2019-04-07T05:56:50.254Z,107.78
2019-04-07T05:59:19.906Z,106.58
2019-04-07T06:01:51.577Z,111.85
2019-04-07T06:04:19.487Z,112.35
2019-04-07T06:06:51.558Z,111.15
2019-04-07T06:09:20.570Z,126.20
2019-04-07T06:11:49.769Z,113.83
2019-04-07T06:14:19.280Z,115.90
2019-04-07T06:16:52.456Z,114.85
2019-04-07T06:19:19.193Z,117.40
2019-04-07T06:21:48.941Z,120.08
2019-04-07T06:24:21.977Z,121.15
2019-04-07T06:26:50.326Z,112.15
2019-04-07T06:29:19.881Z,122.50
2019-04-07T06:31:49.504Z,128.05
2019-04-07T06:34:18.614Z,131.57
2019-04-07T06:36:51.652Z,134.65
2019-04-07T06:39:19.218Z,127.20
2019-04-07T06:41:48.880Z,126.78
2019-04-07T06:44:20.910Z,135.72
2019-04-07T06:46:49.887Z,128.32
2019-04-07T06:49:26.865Z,126.07
2019-04-07T06:52:04.814Z,140.80
2019-04-07T06:54:44.886Z,135.50
2019-04-07T06:57:15.452Z,133.22
2019-04-07T06:59:48.996Z,131.52
2019-04-07T07:02:23.989Z,126.07
2019-04-07T07:05:13.245Z,128.65
2019-04-07T07:07:43.548Z,121.95
2019-04-07T07:10:25.264Z,122.05
2019-04-07T07:12:52.627Z,125.80
2019-04-07T07:15:36.460Z,128.70
2019-04-07T07:18:24.094Z,117.93
2019-04-07T07:21:04.029Z,120.17
2019-04-07T07:23:36.404Z,115.62
2019-04-07T07:26:06.056Z,126.10
2019-04-07T07:28:36.039Z,113.88
2019-04-07T07:31:05.758Z,118.17
2019-04-07T07:33:34.517Z,124.12
2019-04-07T07:36:03.459Z,125.70
2019-04-07T07:38:33.523Z,118.42
2019-04-07T07:41:04.489Z,115.92
2019-04-07T07:43:33.774Z,110.30
2019-04-07T07:46:03.177Z,111.95
2019-04-07T07:48:35.714Z,109.30
2019-04-07T07:53:34.163Z,114.35
2019-04-07T07:56:03.190Z,115.42
2019-04-07T07:58:33.652Z,109.57
2019-04-07T08:01:03.206Z,109.67
2019-04-07T08:03:37.552Z,105.70
2019-04-07T08:06:08.247Z,107.90
2019-04-07T08:08:37.276Z,101.15
2019-04-07T08:11:06.774Z,114.47
2019-04-07T08:13:42.251Z,108.67
2019-04-07T08:16:06.367Z,110.45
2019-04-07T08:18:37.905Z,103.07
2019-04-07T08:21:06.659Z,107.10
2019-04-07T08:23:36.260Z,111.68
2019-04-07T08:26:06.000Z,104.30
2019-04-07T08:28:35.919Z,100.05
2019-04-07T08:31:05.592Z,100.20
2019-04-07T08:33:35.450Z,104.35
2019-04-07T08:36:04.565Z,108.42
2019-04-07T08:38:35.404Z,104.70
2019-04-07T08:41:07.951Z,100.60
2019-04-07T08:43:35.163Z,112.70
2019-04-07T08:46:05.084Z,104.10
2019-04-07T08:48:34.643Z,109.75
2019-04-07T08:51:03.621Z,102.50
2019-04-07T08:53:32.934Z,110.35
2019-04-07T08:56:01.823Z,102.25
2019-04-07T08:58:36.157Z,103.07
2019-04-07T09:01:02.085Z,106.15
2019-04-07T09:03:33.071Z,97.97
2019-04-07T09:06:03.026Z,97.55
2019-04-07T09:08:34.705Z,103.78
2019-04-07T09:11:20.004Z,101.65
2019-04-07T09:13:54.899Z,100.07
2019-04-07T09:16:33.551Z,96.87
2019-04-07T09:19:07.417Z,95.38
2019-04-07T09:21:41.234Z,95.25
2019-04-07T09:24:13.069Z,102.25
2019-04-07T09:26:50.046Z,97.08
2019-04-07T09:29:31.363Z,98.62
2019-04-07T09:32:19.795Z,99.83
2019-04-07T09:35:07.738Z,94.30
2019-04-07T09:37:43.471Z,92.97
2019-04-07T09:40:17.603Z,101.35
2019-04-07T09:43:04.126Z,93.12
2019-04-07T09:45:52.895Z,96.92
2019-04-07T09:48:30.152Z,86.10
2019-04-07T09:51:17.644Z,90.62
2019-04-07T09:53:50.217Z,87.65
2019-04-07T09:56:20.357Z,119.72
2019-04-07T09:58:54.602Z,112.65
2019-04-07T10:01:30.832Z,84.72
2019-04-07T10:04:13.523Z,118.70
2019-04-07T10:06:44.182Z,85.60
2019-04-07T10:09:14.814Z,78.10
2019-04-07T10:11:49.466Z,83.47
2019-04-07T10:14:27.757Z,79.15
2019-04-07T10:16:58.260Z,80.42
2019-04-07T10:19:35.171Z,79.42
2019-04-07T10:22:21.860Z,82.15
2019-04-07T10:24:53.597Z,79.47
2019-04-07T10:27:34.623Z,74.10
2019-04-07T10:30:05.735Z,70.83
2019-04-07T10:32:53.491Z,73.87
2019-04-07T10:35:30.695Z,74.60
2019-04-07T10:38:01.980Z,73.42
2019-04-07T10:40:51.306Z,73.17
2019-04-07T10:43:25.059Z,73.55
2019-04-07T10:46:02.273Z,67.95
2019-04-07T10:48:33.266Z,68.07
2019-04-07T10:51:10.530Z,65.67
2019-04-07T10:53:47.365Z,62.80
2019-04-07T10:56:30.874Z,59.75
2019-04-07T10:59:17.509Z,59.75
2019-04-07T11:02:04.415Z,57.67
2019-04-07T11:04:50.878Z,57.53
2019-04-07T11:07:30.328Z,53.73
2019-04-07T11:10:01.243Z,55.92
2019-04-07T11:12:48.343Z,58.40
2019-04-07T11:15:28.059Z,56.40
2019-04-07T11:18:14.871Z,57.70
2019-04-07T11:20:45.573Z,57.80
2019-04-07T11:23:28.513Z,51.45
2019-04-07T11:25:59.419Z,53.40
2019-04-07T11:28:32.655Z,49.35
2019-04-07T11:31:03.866Z,45.60
2019-04-07T11:36:24.466Z,97.42
2019-04-07T11:39:11.935Z,51.00
2019-04-07T11:41:48.295Z,48.65
2019-04-07T11:44:21.775Z,48.17
2019-04-07T11:46:53.306Z,40.25
2019-04-07T11:49:41.493Z,38.23
2019-04-07T11:52:23.615Z,36.73
2019-04-07T11:55:06.312Z,36.48
2019-04-07T11:58:06.561Z,33.05
2019-04-07T12:00:30.026Z,34.75
2019-04-07T12:03:12.818Z,42.08
2019-04-07T12:05:46.113Z,51.83
2019-04-07T12:08:24.582Z,37.20
2019-04-07T12:11:13.301Z,36.93
2019-04-07T12:13:48.141Z,38.92
2019-04-07T12:16:18.742Z,39.30
2019-04-07T12:18:53.387Z,45.20
2019-04-07T12:21:25.576Z,32.05
2019-04-07T12:24:06.034Z,32.67
2019-04-07T12:26:54.938Z,29.15
2019-04-07T12:29:25.509Z,34.20
2019-04-07T12:31:59.666Z,29.95
2019-04-07T12:34:47.728Z,27.20
2019-04-07T12:37:18.776Z,28.90
2019-04-07T12:39:52.262Z,27.95
2019-04-07T12:42:31.589Z,22.93
2019-04-07T12:45:11.197Z,25.35
2019-04-07T12:47:47.829Z,24.18
2019-04-07T12:50:35.476Z,21.90
2019-04-07T12:53:22.810Z,22.73
2019-04-07T12:56:03.233Z,22.80
2019-04-07T12:58:33.742Z,22.25
2019-04-07T13:01:14.044Z,26.20
2019-04-07T13:03:42.504Z,22.93
2019-04-07T13:06:29.833Z,19.82
2019-04-07T13:09:00.738Z,18.80
2019-04-07T13:11:42.961Z,19.90
2019-04-07T13:14:10.052Z,19.30
2019-04-07T13:16:50.217Z,24.50
2019-04-07T13:19:36.272Z,23.32
2019-04-07T13:22:10.239Z,19.27
2019-04-07T13:24:58.136Z,18.20
2019-04-07T13:30:31.430Z,21.35
2019-04-07T13:33:03.222Z,19.17
2019-04-07T13:35:40.066Z,17.57
2019-04-07T13:38:13.463Z,20.72
2019-04-07T13:40:50.048Z,25.55
2019-04-07T13:43:23.354Z,20.85
2019-04-07T13:45:56.904Z,24.77
2019-04-07T13:48:27.473Z,22.17
2019-04-07T13:50:57.984Z,26.10
2019-04-07T13:53:39.963Z,23.42
2019-04-07T13:56:27.015Z,21.42
2019-04-07T13:59:13.696Z,29.05
2019-04-07T14:01:45.120Z,25.85
2019-04-07T14:04:27.980Z,20.57
2019-04-07T14:07:17.618Z,20.95
2019-04-07T14:10:05.331Z,19.40
2019-04-07T14:12:43.038Z,19.70
2019-04-07T14:15:16.941Z,19.50
2019-04-07T14:18:00.108Z,16.82
2019-04-07T14:20:33.100Z,18.55
2019-04-07T14:23:13.880Z,16.62
2019-04-07T14:25:48.250Z,18.07
2019-04-07T14:28:22.199Z,17.80
2019-04-07T14:31:01.713Z,17.30
2019-04-07T14:33:49.168Z,16.42
2019-04-07T14:36:22.663Z,18.15
2019-04-07T14:38:55.894Z,17.73
2019-04-07T14:41:42.329Z,19.52
2019-04-07T14:44:16.060Z,17.27
2019-04-07T14:47:03.267Z,19.90
2019-04-07T14:49:39.749Z,14.75
2019-04-07T14:52:23.096Z,17.00
2019-04-07T14:54:56.946Z,20.20
2019-04-07T14:57:29.128Z,21.52
2019-04-07T15:00:03.370Z,23.00
2019-04-07T15:02:33.468Z,19.90
2019-04-07T15:05:24.074Z,19.20
2019-04-07T15:08:00.047Z,27.05
2019-04-07T15:10:34.052Z,19.98
2019-04-07T15:13:05.322Z,25.72
2019-04-07T15:15:34.399Z,33.28
2019-04-07T15:18:03.754Z,32.65
2019-04-07T15:20:32.689Z,35.43
2019-04-07T15:23:01.923Z,36.42
2019-04-07T15:25:31.976Z,35.25
2019-04-07T15:28:01.284Z,33.55
2019-04-07T15:30:31.111Z,34.43
2019-04-07T15:33:02.442Z,39.03
2019-04-07T15:35:30.998Z,46.53
2019-04-07T15:37:59.812Z,49.08
2019-04-07T15:40:30.822Z,52.10
2019-04-07T15:43:03.886Z,47.15
2019-04-07T15:45:30.079Z,44.73
2019-04-07T15:48:00.703Z,42.95
2019-04-07T15:50:30.461Z,40.90
2019-04-07T15:53:00.126Z,38.20
2019-04-07T15:55:43.972Z,36.93
2019-04-07T15:57:59.720Z,30.65
2019-04-07T16:00:32.318Z,29.67
2019-04-07T16:03:00.115Z,29.82
2019-04-07T16:05:30.017Z,26.48
2019-04-07T16:08:18.477Z,24.30
2019-04-07T16:10:47.760Z,22.77
2019-04-07T16:13:17.365Z,21.27
2019-04-07T16:15:50.644Z,22.13
2019-04-07T16:18:16.953Z,20.00
2019-04-07T16:20:45.796Z,20.10
2019-04-07T16:23:16.843Z,16.73
2019-04-07T16:25:46.335Z,18.37
2019-04-07T16:28:16.233Z,24.60
2019-04-07T16:30:48.534Z,21.05
2019-04-07T16:33:16.338Z,20.23
2019-04-07T16:35:50.996Z,20.52
2019-04-07T16:38:16.350Z,21.52
2019-04-07T16:40:45.242Z,21.10
2019-04-07T16:43:16.460Z,23.83
2019-04-07T16:45:45.907Z,18.57
2019-04-07T16:48:16.070Z,21.95
2019-04-07T16:50:46.271Z,19.87
2019-04-07T16:53:18.414Z,20.48
2019-04-07T16:55:50.558Z,33.30
2019-04-07T16:58:18.305Z,34.13
2019-04-07T17:00:47.658Z,35.60
2019-04-07T17:03:17.306Z,31.00
2019-04-07T17:05:46.406Z,29.23
2019-04-07T17:08:18.976Z,33.00
2019-04-07T17:10:46.597Z,42.73
2019-04-07T17:13:20.646Z,40.03
2019-04-07T17:15:46.044Z,37.25
2019-04-07T17:18:33.393Z,45.28
2019-04-07T17:21:02.474Z,38.48
2019-04-07T17:23:32.308Z,46.95
2019-04-07T17:26:03.236Z,48.80
2019-04-07T17:28:32.491Z,50.33
2019-04-07T17:31:01.818Z,67.58
2019-04-07T17:33:36.830Z,78.33
2019-04-07T17:36:07.893Z,71.40
2019-04-07T17:38:41.710Z,71.37
2019-04-07T17:41:15.005Z,74.77
2019-04-07T17:46:26.149Z,107.27
2019-04-07T17:48:58.526Z,110.20
2019-04-07T17:51:37.710Z,117.05
2019-04-07T17:54:20.895Z,114.25
2019-04-07T17:56:48.493Z,122.82
2019-04-07T17:59:28.233Z,123.92
2019-04-07T18:02:02.818Z,129.12
2019-04-07T18:04:43.796Z,129.07
2019-04-07T18:07:25.472Z,125.50
2019-04-07T18:09:59.530Z,125.18
2019-04-07T18:12:49.565Z,121.00
2019-04-07T18:15:27.408Z,119.22
2019-04-07T18:18:11.004Z,133.93
2019-04-07T18:20:54.596Z,123.53
2019-04-07T18:23:25.025Z,128.87
2019-04-07T18:26:21.623Z,131.03
2019-04-07T18:29:14.730Z,134.45
2019-04-07T18:32:12.104Z,136.45
2019-04-07T18:35:02.444Z,148.05
2019-04-07T18:37:52.788Z,157.22
2019-04-07T18:40:30.736Z,156.43
2019-04-07T18:43:02.170Z,152.78
2019-04-07T18:45:38.369Z,155.13
2019-04-07T18:48:26.503Z,168.78
2019-04-07T18:54:12.089Z,161.90
2019-04-07T18:57:30.634Z,162.70
2019-04-07T19:00:41.270Z,163.10
2019-04-07T19:03:16.389Z,170.02
2019-04-07T19:05:49.466Z,182.20
2019-04-07T19:08:37.677Z,176.18
2019-04-07T19:11:28.248Z,188.65
2019-04-07T19:14:20.457Z,198.23
2019-04-07T19:17:06.521Z,189.77
2019-04-07T19:20:07.312Z,184.43
2019-04-07T19:22:51.346Z,183.20
2019-04-07T19:25:29.141Z,190.40
2019-04-07T19:28:03.430Z,187.97
2019-04-07T19:30:57.208Z,178.70
2019-04-07T19:33:26.228Z,193.57
2019-04-07T19:36:20.524Z,196.68
2019-04-07T19:39:05.071Z,196.02
2019-04-07T19:42:07.898Z,193.30
2019-04-07T19:44:57.341Z,190.50
2019-04-07T19:48:11.503Z,190.62
2019-04-07T19:50:45.510Z,189.40
2019-04-07T19:53:45.566Z,183.35
2019-04-07T19:56:57.583Z,189.93
2019-04-07T19:59:55.527Z,196.40
2019-04-07T20:02:39.047Z,198.23
2019-04-07T20:05:19.710Z,190.40
2019-04-07T20:08:39.456Z,194.97
2019-04-07T20:11:43.717Z,193.43
2019-04-07T20:15:08.892Z,211.12
2019-04-07T20:18:00.708Z,214.85
2019-04-07T20:20:57.224Z,213.65
2019-04-07T20:23:54.385Z,209.75
2019-04-07T20:26:34.805Z,205.15
2019-04-07T20:29:12.035Z,216.57
2019-04-07T20:32:24.727Z,224.45
2019-04-07T20:35:14.607Z,218.35
2019-04-07T20:38:17.992Z,225.22
2019-04-07T20:41:09.997Z,223.78
2019-04-07T20:44:19.583Z,215.35
2019-04-07T20:47:52.242Z,229.93
2019-04-07T20:51:17.413Z,230.37
2019-04-07T20:53:50.329Z,237.93
2019-04-07T20:56:44.329Z,235.93
2019-04-07T20:59:46.965Z,251.12
2019-04-07T21:02:45.389Z,256.60
2019-04-07T21:05:44.310Z,242.60
2019-04-07T21:08:30.190Z,249.40
2019-04-07T21:11:31.359Z,254.97
2019-04-07T21:14:22.841Z,260.55
2019-04-07T21:17:33.976Z,261.30
2019-04-07T21:20:51.131Z,271.45
2019-04-07T21:23:55.256Z,268.10
2019-04-07T21:26:59.024Z,269.25
2019-04-07T21:29:43.381Z,272.52
2019-04-07T21:32:49.496Z,272.27
2019-04-07T21:35:38.324Z,277.27
2019-04-07T21:38:37.839Z,290.55
2019-04-07T21:41:27.187Z,274.85
2019-04-07T21:43:59.763Z,293.95
2019-04-07T21:46:46.780Z,287.23
2019-04-07T21:49:21.046Z,306.13
2019-04-07T21:52:28.097Z,288.62
2019-04-07T21:55:46.183Z,305.50
2019-04-07T21:58:31.928Z,318.63
2019-04-07T22:01:08.048Z,304.65
2019-04-07T22:03:49.680Z,318.73
2019-04-07T22:06:40.162Z,313.37
2019-04-07T22:09:18.143Z,310.27
2019-04-07T22:11:47.563Z,308.50
2019-04-07T22:14:55.165Z,297.27
2019-04-07T22:18:07.520Z,284.25
2019-04-07T22:20:37.271Z,281.17
2019-04-07T22:23:32.479Z,286.23
2019-04-07T22:25:57.095Z,259.10
2019-04-07T22:28:49.126Z,262.02
2019-04-07T22:31:29.013Z,262.88
2019-04-07T22:34:14.849Z,279.20
2019-04-07T22:37:12.166Z,262.98
2019-04-07T22:39:42.161Z,279.30
2019-04-07T22:42:45.500Z,277.02
2019-04-07T22:45:14.912Z,278.42
2019-04-07T22:47:45.465Z,279.15
2019-04-07T22:50:15.054Z,285.63
2019-04-07T22:53:09.439Z,270.88
2019-04-07T22:56:04.811Z,257.45
2019-04-07T22:58:30.679Z,257.48
2019-04-07T23:01:00.612Z,265.92
2019-04-07T23:04:05.566Z,243.02
2019-04-07T23:06:52.296Z,261.20
2019-04-07T23:09:17.681Z,265.12
2019-04-07T23:11:46.515Z,272.20
2019-04-07T23:14:21.141Z,268.07
2019-04-07T23:16:49.999Z,271.57
2019-04-07T23:19:18.948Z,280.45
2019-04-07T23:25:23.726Z,286.92
2019-04-07T23:28:10.294Z,285.68
2019-04-07T23:31:07.705Z,287.42
2019-04-07T23:36:45.693Z,283.45
2019-04-07T23:39:27.876Z,286.23
2019-04-07T23:41:57.481Z,290.87
2019-04-07T23:44:26.485Z,296.55
2019-04-07T23:46:55.687Z,288.30
2019-04-07T23:49:24.540Z,280.90
2019-04-07T23:51:53.774Z,303.05
2019-04-07T23:54:26.867Z,282.43
2019-04-07T23:56:56.099Z,290.98
2019-04-07T23:59:25.050Z,291.45
